sensor_id;sensor_type;location;lat;lon;timestamp;pressure;altitude;pressure_sealevel;temperature;humidity
60170;BME280;46042;49.444;6.862;2023-04-02T00:09:22;97808.31;;;7.11;100.00
60170;BME280;46042;49.444;6.862;2023-04-02T00:11:49;97819.91;;;7.07;100.00
60170;BME280;46042;49.444;6.862;2023-04-02T00:14:30;97822.44;;;7.09;100.00
60170;BME280;46042;49.444;6.862;2023-04-02T00:17:00;97830.50;;;7.06;100.00
60170;BME280;46042;49.444;6.862;2023-04-02T00:19:38;97826.19;;;7.05;100.00
60170;BME280;46042;49.444;6.862;2023-04-02T00:22:14;97829.34;;;7.10;100.00
60170;BME280;46042;49.444;6.862;2023-04-02T00:24:41;97833.41;;;7.01;100.00
60170;BME280;46042;49.444;6.862;2023-04-02T00:27:12;97835.38;;;6.97;100.00
60170;BME280;46042;49.444;6.862;2023-04-02T00:29:53;97837.03;;;6.98;100.00
60170;BME280;46042;49.444;6.862;2023-04-02T00:32:25;97838.44;;;7.04;100.00
60170;BME280;46042;49.444;6.862;2023-04-02T00:34:53;97836.97;;;7.00;100.00
60170;BME280;46042;49.444;6.862;2023-04-02T00:37:23;97836.09;;;7.00;100.00
60170;BME280;46042;49.444;6.862;2023-04-02T00:40:01;97836.97;;;7.00;100.00
60170;BME280;46042;49.444;6.862;2023-04-02T00:42:33;97833.41;;;7.01;100.00
60170;BME280;46042;49.444;6.862;2023-04-02T00:45:02;97837.69;;;7.02;100.00
60170;BME280;46042;49.444;6.862;2023-04-02T00:47:34;97838.53;;;7.03;100.00
60170;BME280;46042;49.444;6.862;2023-04-02T00:52:36;97839.81;;;7.10;100.00
60170;BME280;46042;49.444;6.862;2023-04-02T00:57:31;97844.69;;;7.02;100.00
60170;BME280;46042;49.444;6.862;2023-04-02T01:05:58;97849.84;;;7.03;100.00
60170;BME280;46042;49.444;6.862;2023-04-02T01:09:03;97842.28;;;6.98;100.00
60170;BME280;46042;49.444;6.862;2023-04-02T01:23:37;97857.13;;;6.85;100.00
60170;BME280;46042;49.444;6.862;2023-04-02T01:31:37;97858.97;;;6.83;100.00
60170;BME280;46042;49.444;6.862;2023-04-02T01:34:07;97856.25;;;6.85;100.00
60170;BME280;46042;49.444;6.862;2023-04-02T01:42:41;97867.75;;;6.82;100.00
60170;BME280;46042;49.444;6.862;2023-04-02T01:45:16;97867.00;;;6.80;100.00
60170;BME280;46042;49.444;6.862;2023-04-02T01:47:43;97862.53;;;6.82;100.00
60170;BME280;46042;49.444;6.862;2023-04-02T01:50:24;97868.06;;;6.77;100.00
60170;BME280;46042;49.444;6.862;2023-04-02T01:52:57;97870.50;;;6.80;100.00
60170;BME280;46042;49.444;6.862;2023-04-02T01:55:39;97864.31;;;6.81;100.00
60170;BME280;46042;49.444;6.862;2023-04-02T01:58:09;97867.97;;;6.79;100.00
60170;BME280;46042;49.444;6.862;2023-04-02T02:00:44;97869.75;;;6.78;100.00
60170;BME280;46042;49.444;6.862;2023-04-02T02:03:12;97874.13;;;6.78;100.00
60170;BME280;46042;49.444;6.862;2023-04-02T02:05:39;97872.44;;;6.77;100.00
60170;BME280;46042;49.444;6.862;2023-04-02T02:08:19;97870.56;;;6.79;100.00
60170;BME280;46042;49.444;6.862;2023-04-02T02:10:48;97886.19;;;6.80;100.00
60170;BME280;46042;49.444;6.862;2023-04-02T02:13:15;97877.41;;;6.81;100.00
60170;BME280;46042;49.444;6.862;2023-04-02T02:15:42;97876.19;;;6.73;100.00
60170;BME280;46042;49.444;6.862;2023-04-02T02:18:11;97880.69;;;6.71;100.00
60170;BME280;46042;49.444;6.862;2023-04-02T02:20:38;97879.66;;;6.73;100.00
60170;BME280;46042;49.444;6.862;2023-04-02T02:23:05;97880.84;;;6.67;100.00
60170;BME280;46042;49.444;6.862;2023-04-02T02:25:33;97886.41;;;6.63;100.00
60170;BME280;46042;49.444;6.862;2023-04-02T02:28:15;97894.81;;;6.68;100.00
60170;BME280;46042;49.444;6.862;2023-04-02T02:30:52;97894.34;;;6.61;100.00
60170;BME280;46042;49.444;6.862;2023-04-02T02:33:26;97893.31;;;6.64;100.00
60170;BME280;46042;49.444;6.862;2023-04-02T02:36:12;97896.56;;;6.67;100.00
60170;BME280;46042;49.444;6.862;2023-04-02T02:38:46;97899.09;;;6.69;100.00
60170;BME280;46042;49.444;6.862;2023-04-02T02:41:16;97900.59;;;6.73;100.00
60170;BME280;46042;49.444;6.862;2023-04-02T02:44:01;97906.75;;;6.72;100.00
60170;BME280;46042;49.444;6.862;2023-04-02T02:46:31;97907.69;;;6.57;100.00
60170;BME280;46042;49.444;6.862;2023-04-02T02:49:00;97908.28;;;6.62;100.00
60170;BME280;46042;49.444;6.862;2023-04-02T02:51:43;97903.13;;;6.60;100.00
60170;BME280;46042;49.444;6.862;2023-04-02T02:54:11;97907.81;;;6.55;100.00
60170;BME280;46042;49.444;6.862;2023-04-02T02:56:44;97916.59;;;6.68;100.00
60170;BME280;46042;49.444;6.862;2023-04-02T02:59:14;97913.03;;;6.69;100.00
60170;BME280;46042;49.444;6.862;2023-04-02T03:01:42;97913.78;;;6.72;100.00
60170;BME280;46042;49.444;6.862;2023-04-02T03:04:09;97913.22;;;6.66;100.00
60170;BME280;46042;49.444;6.862;2023-04-02T03:06:37;97919.75;;;6.74;100.00
60170;BME280;46042;49.444;6.862;2023-04-02T03:11:43;97919.22;;;6.68;100.00
60170;BME280;46042;49.444;6.862;2023-04-02T03:14:23;97923.88;;;6.78;100.00
60170;BME280;46042;49.444;6.862;2023-04-02T03:17:09;97925.47;;;6.66;100.00
60170;BME280;46042;49.444;6.862;2023-04-02T03:19:44;97929.03;;;6.65;100.00
60170;BME280;46042;49.444;6.862;2023-04-02T03:22:34;97925.75;;;6.61;100.00
60170;BME280;46042;49.444;6.862;2023-04-02T03:25:28;97930.31;;;6.58;100.00
60170;BME280;46042;49.444;6.862;2023-04-02T03:28:05;97933.97;;;6.55;100.00
60170;BME280;46042;49.444;6.862;2023-04-02T03:30:41;97936.75;;;6.66;100.00
60170;BME280;46042;49.444;6.862;2023-04-02T03:33:29;97940.03;;;6.70;100.00
60170;BME280;46042;49.444;6.862;2023-04-02T03:36:03;97942.66;;;6.70;100.00
60170;BME280;46042;49.444;6.862;2023-04-02T03:38:39;97940.91;;;6.71;100.00
60170;BME280;46042;49.444;6.862;2023-04-02T03:41:12;97942.38;;;6.75;100.00
60170;BME280;46042;49.444;6.862;2023-04-02T03:43:46;97949.84;;;6.66;100.00
60170;BME280;46042;49.444;6.862;2023-04-02T03:46:29;97958.28;;;6.57;100.00
60170;BME280;46042;49.444;6.862;2023-04-02T03:49:01;97960.44;;;6.65;100.00
60170;BME280;46042;49.444;6.862;2023-04-02T03:51:38;97965.09;;;6.60;100.00
60170;BME280;46042;49.444;6.862;2023-04-02T03:54:11;97967.41;;;6.64;100.00
60170;BME280;46042;49.444;6.862;2023-04-02T03:56:39;97968.19;;;6.52;100.00
60170;BME280;46042;49.444;6.862;2023-04-02T04:04:53;97969.41;;;6.46;100.00
60170;BME280;46042;49.444;6.862;2023-04-02T04:09:59;97975.66;;;6.58;100.00
60170;BME280;46042;49.444;6.862;2023-04-02T04:12:31;97982.75;;;6.56;100.00
60170;BME280;46042;49.444;6.862;2023-04-02T04:15:13;97979.03;;;6.60;100.00
60170;BME280;46042;49.444;6.862;2023-04-02T04:18:01;97978.28;;;6.58;100.00
60170;BME280;46042;49.444;6.862;2023-04-02T04:20:34;97990.22;;;6.62;100.00
60170;BME280;46042;49.444;6.862;2023-04-02T04:23:13;97989.97;;;6.67;100.00
60170;BME280;46042;49.444;6.862;2023-04-02T04:25:42;97991.81;;;6.50;100.00
60170;BME280;46042;49.444;6.862;2023-04-02T04:28:26;97998.47;;;6.56;100.00
60170;BME280;46042;49.444;6.862;2023-04-02T04:31:00;97994.91;;;6.57;100.00
60170;BME280;46042;49.444;6.862;2023-04-02T04:33:33;98002.84;;;6.55;100.00
60170;BME280;46042;49.444;6.862;2023-04-02T04:36:24;98005.28;;;6.59;100.00
60170;BME280;46042;49.444;6.862;2023-04-02T04:38:57;98005.19;;;6.60;100.00
60170;BME280;46042;49.444;6.862;2023-04-02T04:41:31;98022.50;;;6.63;100.00
60170;BME280;46042;49.444;6.862;2023-04-02T04:44:15;98017.06;;;6.66;100.00
60170;BME280;46042;49.444;6.862;2023-04-02T04:47:01;98021.44;;;6.65;100.00
60170;BME280;46042;49.444;6.862;2023-04-02T04:52:15;98021.81;;;6.59;100.00
60170;BME280;46042;49.444;6.862;2023-04-02T04:54:44;98021.56;;;6.64;100.00
60170;BME280;46042;49.444;6.862;2023-04-02T04:57:37;98031.75;;;6.68;100.00
60170;BME280;46042;49.444;6.862;2023-04-02T05:00:19;98033.81;;;6.78;100.00
60170;BME280;46042;49.444;6.862;2023-04-02T05:02:56;98039.03;;;6.78;100.00
60170;BME280;46042;49.444;6.862;2023-04-02T05:05:29;98044.28;;;6.78;100.00
60170;BME280;46042;49.444;6.862;2023-04-02T05:08:05;98047.75;;;6.78;100.00
60170;BME280;46042;49.444;6.862;2023-04-02T05:10:47;98053.06;;;6.77;100.00
60170;BME280;46042;49.444;6.862;2023-04-02T05:13:22;98059.78;;;6.81;100.00
60170;BME280;46042;49.444;6.862;2023-04-02T05:16:03;98055.03;;;6.88;100.00
60170;BME280;46042;49.444;6.862;2023-04-02T05:18:43;98058.31;;;6.91;100.00
60170;BME280;46042;49.444;6.862;2023-04-02T05:21:17;98059.00;;;6.95;100.00
60170;BME280;46042;49.444;6.862;2023-04-02T05:23:47;98065.06;;;6.95;100.00
60170;BME280;46042;49.444;6.862;2023-04-02T05:26:39;98063.94;;;7.00;100.00
60170;BME280;46042;49.444;6.862;2023-04-02T05:29:19;98071.88;;;6.98;100.00
60170;BME280;46042;49.444;6.862;2023-04-02T05:32:01;98072.91;;;6.95;100.00
60170;BME280;46042;49.444;6.862;2023-04-02T05:34:32;98073.47;;;7.01;100.00
60170;BME280;46042;49.444;6.862;2023-04-02T05:37:00;98085.63;;;7.02;100.00
60170;BME280;46042;49.444;6.862;2023-04-02T05:39:27;98081.31;;;7.01;100.00
60170;BME280;46042;49.444;6.862;2023-04-02T05:42:03;98087.13;;;7.06;100.00
60170;BME280;46042;49.444;6.862;2023-04-02T05:44:33;98079.09;;;7.09;100.00
60170;BME280;46042;49.444;6.862;2023-04-02T05:47:05;98093.88;;;7.10;100.00
60170;BME280;46042;49.444;6.862;2023-04-02T05:49:48;98096.41;;;7.11;100.00
60170;BME280;46042;49.444;6.862;2023-04-02T05:52:26;98099.03;;;7.11;100.00
60170;BME280;46042;49.444;6.862;2023-04-02T05:57:53;98102.41;;;7.14;100.00
60170;BME280;46042;49.444;6.862;2023-04-02T06:00:56;98104.28;;;7.11;100.00
60170;BME280;46042;49.444;6.862;2023-04-02T06:06:00;98112.94;;;6.97;100.00
60170;BME280;46042;49.444;6.862;2023-04-02T06:08:34;98112.47;;;7.05;100.00
60170;BME280;46042;49.444;6.862;2023-04-02T06:11:15;98123.53;;;7.10;100.00
60170;BME280;46042;49.444;6.862;2023-04-02T06:13:43;98125.22;;;7.11;100.00
60170;BME280;46042;49.444;6.862;2023-04-02T06:16:13;98131.84;;;7.17;100.00
60170;BME280;46042;49.444;6.862;2023-04-02T06:18:42;98128.13;;;7.21;100.00
60170;BME280;46042;49.444;6.862;2023-04-02T06:21:11;98134.84;;;7.25;100.00
60170;BME280;46042;49.444;6.862;2023-04-02T06:23:52;98134.75;;;7.27;100.00
60170;BME280;46042;49.444;6.862;2023-04-02T06:34:17;98150.78;;;7.37;100.00
60170;BME280;46042;49.444;6.862;2023-04-02T06:36:44;98147.69;;;7.30;100.00
60170;BME280;46042;49.444;6.862;2023-04-02T06:39:20;98149.25;;;7.33;100.00
60170;BME280;46042;49.444;6.862;2023-04-02T06:42:03;98156.75;;;7.39;100.00
60170;BME280;46042;49.444;6.862;2023-04-02T06:44:34;98169.69;;;7.42;100.00
60170;BME280;46042;49.444;6.862;2023-04-02T06:47:08;98168.66;;;7.45;100.00
60170;BME280;46042;49.444;6.862;2023-04-02T06:49:44;98181.38;;;7.51;100.00
60170;BME280;46042;49.444;6.862;2023-04-02T06:52:18;98177.44;;;7.58;100.00
60170;BME280;46042;49.444;6.862;2023-04-02T06:54:47;98184.94;;;7.64;100.00
60170;BME280;46042;49.444;6.862;2023-04-02T06:57:13;98193.34;;;7.69;100.00
60170;BME280;46042;49.444;6.862;2023-04-02T06:59:40;98199.91;;;7.77;100.00
60170;BME280;46042;49.444;6.862;2023-04-02T07:04:42;98193.41;;;7.97;100.00
60170;BME280;46042;49.444;6.862;2023-04-02T07:07:09;98206.81;;;8.07;100.00
60170;BME280;46042;49.444;6.862;2023-04-02T07:09:36;98207.47;;;8.10;100.00
60170;BME280;46042;49.444;6.862;2023-04-02T07:12:10;98213.72;;;8.08;100.00
60170;BME280;46042;49.444;6.862;2023-04-02T07:14:37;98221.13;;;8.16;100.00
60170;BME280;46042;49.444;6.862;2023-04-02T07:17:03;98225.69;;;8.26;100.00
60170;BME280;46042;49.444;6.862;2023-04-02T07:19:30;98232.78;;;8.39;100.00
60170;BME280;46042;49.444;6.862;2023-04-02T07:21:57;98234.00;;;8.48;100.00
60170;BME280;46042;49.444;6.862;2023-04-02T07:24:23;98238.88;;;8.54;100.00
60170;BME280;46042;49.444;6.862;2023-04-02T07:26:50;98249.56;;;8.51;100.00
60170;BME280;46042;49.444;6.862;2023-04-02T07:29:16;98250.22;;;8.40;100.00
60170;BME280;46042;49.444;6.862;2023-04-02T07:31:43;98264.84;;;8.44;100.00
60170;BME280;46042;49.444;6.862;2023-04-02T07:34:10;98265.31;;;8.51;100.00
60170;BME280;46042;49.444;6.862;2023-04-02T07:36:37;98271.88;;;8.58;100.00
60170;BME280;46042;49.444;6.862;2023-04-02T07:39:03;98271.88;;;8.58;100.00
60170;BME280;46042;49.444;6.862;2023-04-02T07:41:30;98283.47;;;8.68;100.00
60170;BME280;46042;49.444;6.862;2023-04-02T07:43:57;98276.91;;;8.76;100.00
60170;BME280;46042;49.444;6.862;2023-04-02T07:46:23;98287.00;;;8.82;100.00
60170;BME280;46042;49.444;6.862;2023-04-02T07:48:51;98280.81;;;8.83;100.00
60170;BME280;46042;49.444;6.862;2023-04-02T07:51:20;98287.97;;;8.94;100.00
60170;BME280;46042;49.444;6.862;2023-04-02T07:53:48;98290.84;;;9.04;100.00
60170;BME280;46042;49.444;6.862;2023-04-02T07:56:18;98289.72;;;9.08;100.00
60170;BME280;46042;49.444;6.862;2023-04-02T07:58:45;98296.09;;;9.04;100.00
60170;BME280;46042;49.444;6.862;2023-04-02T08:01:15;98294.63;;;9.00;100.00
60170;BME280;46042;49.444;6.862;2023-04-02T08:03:42;98291.25;;;8.98;100.00
60170;BME280;46042;49.444;6.862;2023-04-02T08:06:09;98298.28;;;8.97;100.00
60170;BME280;46042;49.444;6.862;2023-04-02T08:08:36;98305.38;;;9.09;100.00
60170;BME280;46042;49.444;6.862;2023-04-02T08:11:02;98311.88;;;9.04;100.00
60170;BME280;46042;49.444;6.862;2023-04-02T08:13:29;98322.09;;;9.08;100.00
60170;BME280;46042;49.444;6.862;2023-04-02T08:15:58;98317.44;;;8.99;100.00
60170;BME280;46042;49.444;6.862;2023-04-02T08:18:26;98320.84;;;8.87;100.00
60170;BME280;46042;49.444;6.862;2023-04-02T08:20:54;98323.56;;;8.85;100.00
60170;BME280;46042;49.444;6.862;2023-04-02T08:23:20;98334.03;;;9.00;100.00
60170;BME280;46042;49.444;6.862;2023-04-02T08:25:48;98333.09;;;9.01;100.00
60170;BME280;46042;49.444;6.862;2023-04-02T08:28:15;98345.25;;;8.89;100.00
60170;BME280;46042;49.444;6.862;2023-04-02T08:30:42;98346.06;;;8.89;100.00
60170;BME280;46042;49.444;6.862;2023-04-02T08:33:09;98343.88;;;8.96;100.00
60170;BME280;46042;49.444;6.862;2023-04-02T08:35:36;98352.88;;;9.06;100.00
60170;BME280;46042;49.444;6.862;2023-04-02T08:38:03;98355.34;;;9.22;100.00
60170;BME280;46042;49.444;6.862;2023-04-02T08:40:34;98360.75;;;9.34;100.00
60170;BME280;46042;49.444;6.862;2023-04-02T08:46:22;98374.94;;;9.59;100.00
60170;BME280;46042;49.444;6.862;2023-04-02T08:48:56;98377.03;;;9.66;100.00
60170;BME280;46042;49.444;6.862;2023-04-02T08:51:30;98376.94;;;9.68;100.00
60170;BME280;46042;49.444;6.862;2023-04-02T08:54:14;98382.84;;;9.85;100.00
60170;BME280;46042;49.444;6.862;2023-04-02T08:56:51;98384.88;;;9.94;100.00
60170;BME280;46042;49.444;6.862;2023-04-02T08:59:31;98391.09;;;9.93;100.00
60170;BME280;46042;49.444;6.862;2023-04-02T09:04:32;98396.72;;;9.74;100.00
60170;BME280;46042;49.444;6.862;2023-04-02T09:06:59;98404.41;;;9.77;100.00
60170;BME280;46042;49.444;6.862;2023-04-02T09:09:26;98404.09;;;9.81;100.00
60170;BME280;46042;49.444;6.862;2023-04-02T09:12:01;98404.91;;;9.69;100.00
60170;BME280;46042;49.444;6.862;2023-04-02T09:17:23;98417.13;;;9.70;100.00
60170;BME280;46042;49.444;6.862;2023-04-02T09:19:56;98420.41;;;9.74;100.00
60170;BME280;46042;49.444;6.862;2023-04-02T09:22:29;98424.47;;;9.65;100.00
60170;BME280;46042;49.444;6.862;2023-04-02T09:24:59;98428.09;;;9.77;100.00
60170;BME280;46042;49.444;6.862;2023-04-02T09:27:29;98435.56;;;9.83;100.00
60170;BME280;46042;49.444;6.862;2023-04-02T09:32:52;98437.19;;;9.58;100.00
60170;BME280;46042;49.444;6.862;2023-04-02T09:35:20;98457.94;;;9.35;100.00
60170;BME280;46042;49.444;6.862;2023-04-02T09:43:18;98469.94;;;9.39;100.00
60170;BME280;46042;49.444;6.862;2023-04-02T09:45:59;98475.28;;;9.38;100.00
60170;BME280;46042;49.444;6.862;2023-04-02T09:48:29;98473.56;;;9.51;100.00
60170;BME280;46042;49.444;6.862;2023-04-02T09:53:44;98481.38;;;9.93;100.00
60170;BME280;46042;49.444;6.862;2023-04-02T09:56:18;98484.94;;;9.92;100.00
60170;BME280;46042;49.444;6.862;2023-04-02T09:59:03;98489.56;;;10.29;100.00
60170;BME280;46042;49.444;6.862;2023-04-02T10:01:35;98488.97;;;10.51;100.00
60170;BME280;46042;49.444;6.862;2023-04-02T10:04:04;98493.09;;;10.56;100.00
60170;BME280;46042;49.444;6.862;2023-04-02T10:06:33;98491.28;;;10.56;100.00
60170;BME280;46042;49.444;6.862;2023-04-02T10:09:30;98494.88;;;10.55;100.00
60170;BME280;46042;49.444;6.862;2023-04-02T10:11:59;98500.03;;;10.70;100.00
60170;BME280;46042;49.444;6.862;2023-04-02T10:14:29;98500.03;;;10.70;100.00
60170;BME280;46042;49.444;6.862;2023-04-02T10:17:03;98513.22;;;10.82;100.00
60170;BME280;46042;49.444;6.862;2023-04-02T10:19:38;98520.28;;;10.82;100.00
60170;BME280;46042;49.444;6.862;2023-04-02T10:22:12;98518.78;;;10.78;100.00
60170;BME280;46042;49.444;6.862;2023-04-02T10:24:40;98523.13;;;10.53;100.00
60170;BME280;46042;49.444;6.862;2023-04-02T10:33:14;98531.44;;;10.99;100.00
60170;BME280;46042;49.444;6.862;2023-04-02T10:41:30;98541.47;;;11.06;100.00
60170;BME280;46042;49.444;6.862;2023-04-02T10:44:06;98544.94;;;11.07;100.00
60170;BME280;46042;49.444;6.862;2023-04-02T10:55:32;98561.25;;;10.60;100.00
60170;BME280;46042;49.444;6.862;2023-04-02T10:58:02;98561.56;;;10.56;100.00
60170;BME280;46042;49.444;6.862;2023-04-02T11:00:34;98567.97;;;10.51;100.00
60170;BME280;46042;49.444;6.862;2023-04-02T11:03:06;98573.59;;;10.60;100.00
60170;BME280;46042;49.444;6.862;2023-04-02T11:05:50;98575.38;;;10.59;100.00
60170;BME280;46042;49.444;6.862;2023-04-02T11:13:37;98593.28;;;10.27;100.00
60170;BME280;46042;49.444;6.862;2023-04-02T11:16:05;98587.72;;;10.31;100.00
60170;BME280;46042;49.444;6.862;2023-04-02T11:18:33;98596.16;;;10.36;100.00
60170;BME280;46042;49.444;6.862;2023-04-02T11:23:57;98605.25;;;10.45;100.00
60170;BME280;46042;49.444;6.862;2023-04-02T11:29:35;98600.97;;;10.57;100.00
60170;BME280;46042;49.444;6.862;2023-04-02T11:37:41;98613.25;;;10.97;100.00
60170;BME280;46042;49.444;6.862;2023-04-02T11:42:37;98617.91;;;11.19;100.00
60170;BME280;46042;49.444;6.862;2023-04-02T11:50:28;98631.59;;;11.12;100.00
60170;BME280;46042;49.444;6.862;2023-04-02T11:53:02;98630.97;;;11.08;100.00
60170;BME280;46042;49.444;6.862;2023-04-02T11:55:33;98640.13;;;10.89;100.00
60170;BME280;46042;49.444;6.862;2023-04-02T12:09:28;98654.56;;;10.43;100.00
60170;BME280;46042;49.444;6.862;2023-04-02T12:12:01;98659.63;;;10.46;100.00
60170;BME280;46042;49.444;6.862;2023-04-02T12:14:50;98659.41;;;10.49;100.00
60170;BME280;46042;49.444;6.862;2023-04-02T12:17:38;98666.13;;;10.41;100.00
60170;BME280;46042;49.444;6.862;2023-04-02T12:22:47;98673.94;;;10.28;100.00
60170;BME280;46042;49.444;6.862;2023-04-02T12:25:32;98682.13;;;10.23;100.00
60170;BME280;46042;49.444;6.862;2023-04-02T12:30:36;98689.69;;;10.15;100.00
60170;BME280;46042;49.444;6.862;2023-04-02T12:35:46;98699.03;;;9.91;100.00
60170;BME280;46042;49.444;6.862;2023-04-02T12:38:29;98705.78;;;9.95;100.00
60170;BME280;46042;49.444;6.862;2023-04-02T12:41:14;98714.63;;;9.94;100.00
60170;BME280;46042;49.444;6.862;2023-04-02T12:43:44;98708.63;;;9.92;100.00
60170;BME280;46042;49.444;6.862;2023-04-02T12:46:13;98730.59;;;9.91;100.00
60170;BME280;46042;49.444;6.862;2023-04-02T12:48:39;98733.72;;;9.84;100.00
60170;BME280;46042;49.444;6.862;2023-04-02T12:51:06;98736.63;;;9.79;100.00
60170;BME280;46042;49.444;6.862;2023-04-02T12:53:37;98740.47;;;9.88;100.00
60170;BME280;46042;49.444;6.862;2023-04-02T12:56:04;98742.00;;;9.77;100.00
60170;BME280;46042;49.444;6.862;2023-04-02T12:58:36;98743.84;;;9.75;100.00
60170;BME280;46042;49.444;6.862;2023-04-02T13:01:14;98748.94;;;9.78;100.00
60170;BME280;46042;49.444;6.862;2023-04-02T13:03:41;98751.28;;;9.83;100.00
60170;BME280;46042;49.444;6.862;2023-04-02T13:06:20;98755.59;;;9.84;100.00
60170;BME280;46042;49.444;6.862;2023-04-02T13:08:49;98760.78;;;9.86;100.00
60170;BME280;46042;49.444;6.862;2023-04-02T13:11:16;98756.06;;;9.62;100.00
60170;BME280;46042;49.444;6.862;2023-04-02T13:13:45;98761.19;;;9.49;100.00
60170;BME280;46042;49.444;6.862;2023-04-02T13:18:47;98763.94;;;9.47;100.00
60170;BME280;46042;49.444;6.862;2023-04-02T13:21:25;98766.41;;;9.65;100.00
60170;BME280;46042;49.444;6.862;2023-04-02T13:23:54;98775.25;;;9.78;100.00
60170;BME280;46042;49.444;6.862;2023-04-02T13:26:23;98777.03;;;9.78;100.00
60170;BME280;46042;49.444;6.862;2023-04-02T13:31:47;98791.53;;;9.54;100.00
60170;BME280;46042;49.444;6.862;2023-04-02T13:34:14;98786.81;;;9.31;100.00
60170;BME280;46042;49.444;6.862;2023-04-02T13:36:41;98786.31;;;9.24;100.00
60170;BME280;46042;49.444;6.862;2023-04-02T13:39:07;98789.50;;;9.29;100.00
60170;BME280;46042;49.444;6.862;2023-04-02T13:41:46;98792.94;;;9.15;100.00
60170;BME280;46042;49.444;6.862;2023-04-02T13:44:33;98800.09;;;9.13;100.00
60170;BME280;46042;49.444;6.862;2023-04-02T13:47:02;98801.84;;;9.13;100.00
60170;BME280;46042;49.444;6.862;2023-04-02T13:49:30;98811.16;;;9.18;100.00
60170;BME280;46042;49.444;6.862;2023-04-02T13:52:01;98812.19;;;9.16;100.00
60170;BME280;46042;49.444;6.862;2023-04-02T13:54:48;98812.09;;;9.17;100.00
60170;BME280;46042;49.444;6.862;2023-04-02T13:57:16;98819.50;;;9.10;100.00
60170;BME280;46042;49.444;6.862;2023-04-02T13:59:43;98825.00;;;9.06;100.00
60170;BME280;46042;49.444;6.862;2023-04-02T14:02:17;98827.06;;;9.01;100.00
60170;BME280;46042;49.444;6.862;2023-04-02T14:04:47;98833.06;;;9.03;100.00
60170;BME280;46042;49.444;6.862;2023-04-02T14:16:03;98852.06;;;8.76;100.00
60170;BME280;46042;49.444;6.862;2023-04-02T14:24:27;98867.41;;;8.84;100.00
60170;BME280;46042;49.444;6.862;2023-04-02T14:27:22;98868.06;;;8.87;100.00
60170;BME280;46042;49.444;6.862;2023-04-02T14:33:01;98882.72;;;8.59;100.00
60170;BME280;46042;49.444;6.862;2023-04-02T14:35:38;98874.69;;;8.62;100.00
60170;BME280;46042;49.444;6.862;2023-04-02T14:38:32;98887.38;;;8.54;100.00
60170;BME280;46042;49.444;6.862;2023-04-02T14:41:09;98890.63;;;8.42;100.00
60170;BME280;46042;49.444;6.862;2023-04-02T14:43:52;98897.47;;;8.44;100.00
60170;BME280;46042;49.444;6.862;2023-04-02T14:46:24;98904.16;;;8.34;100.00
60170;BME280;46042;49.444;6.862;2023-04-02T14:49:00;98907.34;;;8.23;100.00
60170;BME280;46042;49.444;6.862;2023-04-02T14:51:36;98906.06;;;8.14;100.00
60170;BME280;46042;49.444;6.862;2023-04-02T14:56:59;98910.91;;;7.87;100.00
60170;BME280;46042;49.444;6.862;2023-04-02T14:59:34;98921.56;;;7.83;100.00
60170;BME280;46042;49.444;6.862;2023-04-02T15:02:15;98918.25;;;7.80;100.00
60170;BME280;46042;49.444;6.862;2023-04-02T15:04:58;98925.22;;;7.81;100.00
60170;BME280;46042;49.444;6.862;2023-04-02T15:07:35;98933.84;;;7.83;100.00
60170;BME280;46042;49.444;6.862;2023-04-02T15:12:39;98948.16;;;7.76;100.00
60170;BME280;46042;49.444;6.862;2023-04-02T15:18:15;98946.84;;;7.67;100.00
60170;BME280;46042;49.444;6.862;2023-04-02T15:23:33;98955.84;;;7.61;100.00
60170;BME280;46042;49.444;6.862;2023-04-02T15:29:02;98957.09;;;7.54;100.00
60170;BME280;46042;49.444;6.862;2023-04-02T15:31:45;98954.41;;;7.56;100.00
60170;BME280;46042;49.444;6.862;2023-04-02T15:34:31;98957.03;;;7.56;100.00
60170;BME280;46042;49.444;6.862;2023-04-02T15:37:11;98966.50;;;7.58;100.00
60170;BME280;46042;49.444;6.862;2023-04-02T15:42:38;98971.28;;;7.50;100.00
60170;BME280;46042;49.444;6.862;2023-04-02T15:45:25;98978.13;;;7.52;100.00
60170;BME280;46042;49.444;6.862;2023-04-02T15:50:37;98988.09;;;7.26;100.00
60170;BME280;46042;49.444;6.862;2023-04-02T16:01:37;99004.47;;;7.13;100.00
60170;BME280;46042;49.444;6.862;2023-04-02T16:07:18;99015.19;;;7.06;100.00
60170;BME280;46042;49.444;6.862;2023-04-02T16:10:18;99020.09;;;6.95;100.00
60170;BME280;46042;49.444;6.862;2023-04-02T16:18:37;99031.31;;;6.78;100.00
60170;BME280;46042;49.444;6.862;2023-04-02T16:32:24;99046.53;;;6.89;100.00
60170;BME280;46042;49.444;6.862;2023-04-02T16:34:57;99051.88;;;6.87;100.00
60170;BME280;46042;49.444;6.862;2023-04-02T16:37:55;99053.75;;;6.83;100.00
60170;BME280;46042;49.444;6.862;2023-04-02T16:46:28;99063.47;;;6.61;100.00
60170;BME280;46042;49.444;6.862;2023-04-02T16:54:30;99081.66;;;6.43;100.00
60170;BME280;46042;49.444;6.862;2023-04-02T16:59:54;99090.28;;;6.45;100.00
60170;BME280;46042;49.444;6.862;2023-04-02T17:07:55;99096.75;;;6.36;100.00
60170;BME280;46042;49.444;6.862;2023-04-02T17:10:51;99110.03;;;6.32;100.00
60170;BME280;46042;49.444;6.862;2023-04-02T17:13:37;99112.22;;;6.20;100.00
60170;BME280;46042;49.444;6.862;2023-04-02T17:18:41;99129.56;;;6.23;100.00
60170;BME280;46042;49.444;6.862;2023-04-02T17:21:13;99135.72;;;6.22;100.00
60170;BME280;46042;49.444;6.862;2023-04-02T17:23:50;99132.03;;;6.26;100.00
60170;BME280;46042;49.444;6.862;2023-04-02T17:26:24;99134.72;;;6.24;100.00
60170;BME280;46042;49.444;6.862;2023-04-02T17:28:53;99134.91;;;6.20;100.00
60170;BME280;46042;49.444;6.862;2023-04-02T17:31:24;99146.31;;;6.19;100.00
60170;BME280;46042;49.444;6.862;2023-04-02T17:33:51;99133.66;;;6.08;100.00
60170;BME280;46042;49.444;6.862;2023-04-02T17:36:39;99143.00;;;6.14;100.00
60170;BME280;46042;49.444;6.862;2023-04-02T17:39:23;99154.56;;;6.08;100.00
60170;BME280;46042;49.444;6.862;2023-04-02T17:42:16;99157.50;;;5.98;100.00
60170;BME280;46042;49.444;6.862;2023-04-02T17:53:01;99178.16;;;5.82;100.00